Manas, China
Current Conditions -  °F | °C
As of 7:30 AM on Saturday 25 Oct 2014 (Local Time) from ZWWW Reporting Station
Clear Clear  
Wind Chill: 52°   Ceiling: Unl
Heat Index: 52°   Visibility: 6mi
Dew Point: 41°   Wind: 2mph
Humidity: 67%   Direction: 130°SE
Pressure: 30.03"   Gusts: NA
Location:  44.3°N, 86.22°E
Report Text: ZWWW 242330Z 13001MPS CAVOK 11/05 Q1017 NOSIG
Loading
Personal Weather Stations






























Interactive Weather Map
Tropical Storm Tracking
New forecast layout! Learn more

10-Day Weather Forecast

Advertisements
Track Severe Weather on mobile